Springfield Branson National Airport
KSGF : now visible

Airfield :











YOU CAN JOIN US ON...

 
LOGIN :

Register | Disclaimer

   EN    FR    IT 

 









Legend :    VFR   Marginal VFR   IFR   Intensive IFR   Very Intensive IFR
Visi :
Ceiling :
>= 8 km
>= 3000ft
5 to 8 km
1000 to 3000 ft
1500m to 5 km
500 to 1000 ft
800 to 1500m
200 to 500 ft
< 800m
< 200 ft
Symbols :   Thunderstorms  Fog  Heavy snow  Heavy precipitations  Wind > 20 kt






- Airport Elevation : 1268 ft
- IATA code : SGF


KSGF - Springfield Branson National

CURRENT METAR :
  • 200152Z 27007KT 10SM CLR 02/M05 A3038 RMK AO2 SLP300 T00221050

EXPIRED METARs :
  • 200052Z 26005KT 10SM CLR 02/M05 A3037 RMK AO2 SLP297 T00221050
  • 192352Z 27005KT 10SM CLR 03/M05 A3038 RMK AO2 SLP297 T00281050 10067 20022 51011

TAF KSGF
Valid from the 20 at 00:00 until the 21 at 00:00 UTC


192324Z 2000/2024 29006KT P6SM BKN250
FM201100 19005KT P6SM BKN250
FM201700 20015G23KT P6SM BKN250
KZKC FIR / North America



MET'MAP, your aeronautical weather chart ! - Copyright ORBIFLY December 2007 - Disclaimer

ORBIFLY MET'MAP TEAM :

Programming & Development : Alexandra Zaïnal
Concept & original design : Baudouin d'Aumeries
Assistance for programming : Marc-Olivier Méhu
Technical & hardware support : Manuel Goepfert

Contact : metmap@orbifly.com




SOURCES & CREDITS :

   NOAA       Earth
Advisory